createdAt,value
2022-08-17T00:01:52.882Z,18.30
2022-08-17T00:04:23.435Z,18.44
2022-08-17T00:06:53.286Z,18.44
2022-08-17T00:09:21.448Z,18.40
2022-08-17T00:12:41.081Z,18.34
2022-08-17T00:14:38.596Z,18.27
2022-08-17T00:17:07.016Z,18.37
2022-08-17T00:19:36.523Z,18.39
2022-08-17T00:22:31.567Z,18.37
2022-08-17T00:24:55.190Z,18.21
2022-08-17T00:27:23.369Z,18.08
2022-08-17T00:29:52.383Z,18.16
2022-08-17T00:33:15.945Z,18.26
2022-08-17T00:35:13.406Z,18.25
2022-08-17T00:37:42.077Z,18.25
2022-08-17T00:40:13.685Z,18.24
2022-08-17T00:42:43.447Z,18.14
2022-08-17T00:45:15.314Z,18.14
2022-08-17T00:47:43.976Z,18.18
2022-08-17T00:50:18.884Z,18.13
2022-08-17T00:52:53.491Z,17.97
2022-08-17T00:55:22.533Z,17.97
2022-08-17T00:57:55.560Z,17.99
2022-08-17T01:00:26.922Z,18.02
2022-08-17T01:02:58.823Z,17.98
2022-08-17T01:05:32.020Z,17.97
2022-08-17T01:08:01.737Z,17.92
2022-08-17T01:11:00.335Z,17.93
2022-08-17T01:13:27.165Z,17.83
2022-08-17T01:16:01.189Z,17.85
2022-08-17T01:18:29.737Z,17.90
2022-08-17T01:21:04.533Z,17.74
2022-08-17T01:23:34.193Z,17.77
2022-08-17T01:26:05.462Z,17.69
2022-08-17T01:28:54.542Z,17.53
2022-08-17T01:31:27.396Z,17.60
2022-08-17T01:33:55.958Z,17.66
2022-08-17T01:36:24.113Z,17.76
2022-08-17T01:38:53.631Z,17.71
2022-08-17T01:41:23.993Z,17.69
2022-08-17T01:43:55.938Z,17.55
2022-08-17T01:46:27.897Z,17.49
2022-08-17T01:48:57.905Z,17.47
2022-08-17T01:51:29.331Z,17.46
2022-08-17T01:54:01.764Z,17.44
2022-08-17T01:56:31.349Z,17.42
2022-08-17T01:58:59.750Z,17.37
2022-08-17T02:01:31.213Z,17.33
2022-08-17T02:04:01.646Z,17.28
2022-08-17T02:06:53.573Z,17.26
2022-08-17T02:09:23.410Z,17.06
2022-08-17T02:11:54.633Z,17.01
2022-08-17T02:14:23.728Z,16.88
2022-08-17T02:16:52.909Z,16.88
2022-08-17T02:19:21.833Z,16.93
2022-08-17T02:21:53.126Z,17.00
2022-08-17T02:25:00.058Z,17.08
2022-08-17T02:27:15.043Z,17.12
2022-08-17T02:29:43.233Z,17.20
2022-08-17T02:32:20.884Z,17.13
2022-08-17T02:34:57.317Z,17.11
2022-08-17T02:37:26.342Z,17.08
2022-08-17T02:39:58.550Z,17.15
2022-08-17T02:42:31.430Z,17.27
2022-08-17T02:45:00.641Z,17.20
2022-08-17T02:47:28.884Z,17.12
2022-08-17T02:49:57.057Z,17.08
2022-08-17T02:52:43.191Z,17.05
2022-08-17T02:55:16.426Z,16.93
2022-08-17T02:57:45.784Z,16.93
2022-08-17T03:00:17.234Z,16.95
2022-08-17T03:02:45.788Z,16.93
2022-08-17T03:05:17.073Z,16.98
2022-08-17T03:07:45.329Z,16.89
2022-08-17T03:10:15.557Z,16.69
2022-08-17T03:12:45.089Z,16.67
2022-08-17T03:15:16.490Z,16.47
2022-08-17T03:17:45.269Z,16.36
2022-08-17T03:20:16.088Z,16.48
2022-08-17T03:22:53.058Z,16.39
2022-08-17T03:25:26.485Z,16.81
2022-08-17T03:27:56.685Z,17.00
2022-08-17T03:30:26.761Z,16.63
2022-08-17T03:32:57.747Z,16.50
2022-08-17T03:35:28.822Z,16.73
2022-08-17T03:38:00.479Z,16.63
2022-08-17T03:40:39.852Z,16.37
2022-08-17T03:43:22.084Z,16.54
2022-08-17T03:46:10.783Z,16.55
2022-08-17T03:49:13.575Z,16.55
2022-08-17T03:51:59.468Z,16.62
2022-08-17T03:54:45.090Z,16.73
2022-08-17T03:57:14.761Z,16.75
2022-08-17T03:59:45.142Z,16.74
2022-08-17T04:02:18.030Z,16.69
2022-08-17T04:04:46.203Z,16.45
2022-08-17T04:07:14.517Z,16.62
2022-08-17T04:09:43.519Z,16.62
2022-08-17T04:12:12.523Z,16.46
2022-08-17T04:14:53.722Z,16.59
2022-08-17T04:17:25.211Z,16.62
2022-08-17T04:19:54.081Z,16.75
2022-08-17T04:22:32.918Z,16.58
2022-08-17T04:25:09.243Z,16.61
2022-08-17T04:27:37.608Z,16.54
2022-08-17T04:30:08.368Z,16.61
2022-08-17T04:33:03.552Z,16.56
2022-08-17T04:35:43.133Z,16.75
2022-08-17T04:38:14.759Z,16.87
2022-08-17T04:41:09.910Z,17.21
2022-08-17T04:43:40.027Z,17.52
2022-08-17T04:46:12.446Z,17.46
2022-08-17T04:48:42.938Z,17.25
2022-08-17T04:51:14.395Z,17.40
2022-08-17T04:53:45.208Z,17.58
2022-08-17T04:56:18.315Z,17.61
2022-08-17T04:58:49.870Z,18.06
2022-08-17T05:01:23.692Z,18.32
2022-08-17T05:03:53.640Z,18.31
2022-08-17T05:06:22.091Z,18.51
2022-08-17T05:08:50.479Z,18.46
2022-08-17T05:11:18.842Z,18.53
2022-08-17T05:13:50.017Z,18.45
2022-08-17T05:16:20.544Z,18.64
2022-08-17T05:18:49.430Z,18.82
2022-08-17T05:21:18.769Z,18.96
2022-08-17T05:23:50.335Z,19.13
2022-08-17T05:26:26.925Z,19.37
2022-08-17T05:28:57.264Z,19.62
2022-08-17T05:31:30.206Z,19.86
2022-08-17T05:33:59.080Z,20.11
2022-08-17T05:36:42.199Z,20.18
2022-08-17T05:39:15.830Z,20.17
2022-08-17T05:41:48.084Z,20.32
2022-08-17T05:44:17.001Z,20.38
2022-08-17T05:46:51.098Z,20.43
2022-08-17T05:49:27.075Z,20.36
2022-08-17T05:52:10.754Z,20.46
2022-08-17T05:54:50.900Z,20.53
2022-08-17T05:57:39.940Z,20.57
2022-08-17T06:00:16.997Z,20.72
2022-08-17T06:02:59.225Z,20.70
2022-08-17T06:05:44.008Z,20.83
2022-08-17T06:08:21.892Z,20.99
2022-08-17T06:10:59.105Z,21.18
2022-08-17T06:13:51.338Z,21.30
2022-08-17T06:16:32.899Z,21.40
2022-08-17T06:19:12.800Z,21.73
2022-08-17T06:21:44.993Z,22.58
2022-08-17T06:24:24.428Z,23.52
2022-08-17T06:26:53.878Z,23.66
2022-08-17T06:29:33.481Z,23.72
2022-08-17T06:32:02.450Z,23.17
2022-08-17T06:34:33.905Z,23.27
2022-08-17T06:37:15.106Z,24.19
2022-08-17T06:39:53.970Z,24.50
2022-08-17T06:43:00.850Z,24.50
2022-08-17T06:45:28.774Z,24.92
2022-08-17T06:48:03.360Z,25.34
2022-08-17T06:50:39.946Z,25.67
2022-08-17T06:53:18.839Z,25.56
2022-08-17T06:55:53.966Z,26.05
2022-08-17T06:58:29.483Z,26.51
2022-08-17T07:01:01.016Z,26.33
2022-08-17T07:03:37.890Z,26.09
2022-08-17T07:06:14.348Z,26.05
2022-08-17T07:08:52.018Z,25.99
2022-08-17T07:11:28.345Z,25.92
2022-08-17T07:14:05.505Z,26.34
2022-08-17T07:16:40.181Z,26.60
2022-08-17T07:19:10.944Z,26.56
2022-08-17T07:21:51.666Z,26.47
2022-08-17T07:24:35.569Z,26.16
2022-08-17T07:27:11.195Z,26.46
2022-08-17T07:29:46.704Z,26.69
2022-08-17T07:32:18.579Z,26.97
2022-08-17T07:35:23.049Z,27.39
2022-08-17T07:38:25.370Z,27.36
2022-08-17T07:41:04.740Z,27.61
2022-08-17T07:43:36.581Z,27.40
2022-08-17T07:46:35.387Z,27.25
2022-08-17T07:49:38.056Z,27.26
2022-08-17T07:52:47.537Z,27.44
2022-08-17T07:54:59.121Z,28.21
2022-08-17T07:57:36.639Z,28.36
2022-08-17T08:00:19.656Z,28.37
2022-08-17T08:03:04.489Z,28.08
2022-08-17T08:05:50.210Z,28.72
2022-08-17T08:08:29.544Z,29.15
2022-08-17T08:11:07.269Z,29.25
2022-08-17T08:13:42.229Z,29.12
2022-08-17T08:16:26.996Z,29.37
2022-08-17T08:18:58.271Z,29.07
2022-08-17T08:21:36.231Z,29.39
2022-08-17T08:24:21.580Z,29.35
2022-08-17T08:26:57.646Z,29.51
2022-08-17T08:29:34.271Z,29.23
2022-08-17T08:32:12.538Z,29.43
2022-08-17T08:35:02.181Z,28.96
2022-08-17T08:37:44.350Z,28.63
2022-08-17T08:40:31.039Z,29.25
2022-08-17T08:43:08.175Z,29.00
2022-08-17T08:45:46.811Z,29.89
2022-08-17T08:48:53.271Z,29.62
2022-08-17T08:51:37.161Z,29.63
2022-08-17T08:54:26.441Z,29.85
2022-08-17T08:57:24.438Z,30.04
2022-08-17T09:00:07.424Z,29.81
2022-08-17T09:03:02.592Z,30.17
2022-08-17T09:05:43.125Z,29.80
2022-08-17T09:08:17.049Z,29.81
2022-08-17T09:10:57.576Z,29.71
2022-08-17T09:13:36.086Z,29.89
2022-08-17T09:16:11.533Z,30.07
2022-08-17T09:19:03.352Z,30.38
2022-08-17T09:21:47.940Z,30.69
2022-08-17T09:24:24.098Z,30.47
2022-08-17T09:26:59.007Z,30.08
2022-08-17T09:29:32.403Z,30.50
2022-08-17T09:32:04.699Z,30.72
2022-08-17T09:34:37.496Z,30.45
2022-08-17T09:37:19.038Z,30.53
2022-08-17T09:39:54.011Z,30.33
2022-08-17T09:42:28.444Z,29.79
2022-08-17T09:45:10.639Z,30.78
2022-08-17T09:47:46.634Z,30.62
2022-08-17T09:51:03.894Z,30.95
2022-08-17T09:53:10.311Z,30.41
2022-08-17T09:55:53.266Z,30.93
2022-08-17T09:58:30.363Z,31.32
2022-08-17T10:01:07.910Z,31.50
2022-08-17T10:03:52.762Z,31.24
2022-08-17T10:06:25.849Z,31.32
2022-08-17T10:09:08.170Z,31.36
2022-08-17T10:12:00.629Z,31.35
2022-08-17T10:14:44.152Z,31.12
2022-08-17T10:17:21.527Z,31.13
2022-08-17T10:20:01.461Z,31.61
2022-08-17T10:22:54.959Z,31.22
2022-08-17T10:25:54.709Z,31.02
2022-08-17T10:28:30.263Z,30.85
2022-08-17T10:31:33.822Z,31.45
2022-08-17T10:34:09.517Z,31.54
2022-08-17T10:36:48.961Z,30.79
2022-08-17T10:39:26.837Z,30.62
2022-08-17T10:41:59.089Z,31.24
2022-08-17T10:44:41.453Z,31.89
2022-08-17T10:47:12.771Z,32.05
2022-08-17T10:49:49.446Z,31.85
2022-08-17T10:52:50.073Z,31.13
2022-08-17T10:55:20.581Z,31.19
2022-08-17T10:57:51.147Z,30.89
2022-08-17T11:00:59.061Z,31.09
2022-08-17T11:03:27.842Z,31.29
2022-08-17T11:06:12.648Z,31.21
2022-08-17T11:09:03.278Z,30.78
2022-08-17T11:12:06.626Z,30.96
2022-08-17T11:14:49.972Z,30.98
2022-08-17T11:17:41.449Z,31.04
2022-08-17T11:20:47.743Z,31.46
2022-08-17T11:23:45.914Z,30.92
2022-08-17T11:26:25.979Z,30.87
2022-08-17T11:29:00.093Z,31.74
2022-08-17T11:31:38.361Z,30.96
2022-08-17T11:34:21.412Z,30.94
2022-08-17T11:37:26.318Z,30.99
2022-08-17T11:40:27.685Z,30.66
2022-08-17T11:43:13.916Z,31.27
2022-08-17T11:46:01.369Z,31.61
2022-08-17T11:48:56.399Z,31.85
2022-08-17T11:51:45.925Z,31.56
2022-08-17T11:57:41.813Z,31.84
2022-08-17T12:00:47.364Z,31.73
2022-08-17T12:03:42.453Z,32.58
2022-08-17T12:06:35.770Z,31.39
2022-08-17T12:09:10.204Z,31.25
2022-08-17T12:12:05.845Z,31.85
2022-08-17T12:15:07.922Z,31.88
2022-08-17T12:17:41.442Z,31.60
2022-08-17T12:20:17.169Z,31.50
2022-08-17T12:22:57.602Z,31.72
2022-08-17T12:25:34.721Z,31.91
2022-08-17T12:28:05.962Z,32.32
2022-08-17T12:30:36.864Z,32.05
2022-08-17T12:33:13.340Z,31.42
2022-08-17T12:35:59.597Z,31.60
2022-08-17T12:38:32.461Z,31.54
2022-08-17T12:41:24.360Z,32.04
2022-08-17T12:44:02.627Z,32.64
2022-08-17T12:46:35.211Z,32.59
2022-08-17T12:49:23.656Z,32.05
2022-08-17T12:52:01.135Z,31.90
2022-08-17T12:54:37.509Z,32.00
2022-08-17T12:57:09.983Z,32.26
2022-08-17T12:59:42.146Z,32.27
2022-08-17T13:02:20.352Z,31.79
2022-08-17T13:04:50.259Z,32.14
2022-08-17T13:07:30.550Z,32.05
2022-08-17T13:09:59.102Z,32.08
2022-08-17T13:12:33.630Z,31.80
2022-08-17T13:15:02.081Z,31.94
2022-08-17T13:17:34.634Z,31.53
2022-08-17T13:20:15.604Z,31.20
2022-08-17T13:22:45.296Z,30.99
2022-08-17T13:25:16.978Z,30.88
2022-08-17T13:27:47.155Z,30.78
2022-08-17T13:30:23.807Z,30.99
2022-08-17T13:32:53.839Z,30.53
2022-08-17T13:35:50.401Z,30.83
2022-08-17T13:38:40.460Z,30.97
2022-08-17T13:41:08.872Z,31.13
2022-08-17T13:43:48.519Z,31.21
2022-08-17T13:46:22.704Z,31.18
2022-08-17T13:49:03.452Z,31.63
2022-08-17T13:51:36.025Z,31.91
2022-08-17T13:54:20.026Z,31.86
2022-08-17T13:56:57.561Z,31.99
2022-08-17T13:59:36.379Z,32.31
2022-08-17T14:02:20.811Z,32.09
2022-08-17T14:04:50.247Z,32.05
2022-08-17T14:07:33.757Z,31.71
2022-08-17T14:10:06.498Z,31.71
2022-08-17T14:12:36.686Z,31.85
2022-08-17T14:15:05.548Z,32.33
2022-08-17T14:17:38.690Z,32.37
2022-08-17T14:20:10.284Z,32.18
2022-08-17T14:22:44.275Z,31.89
2022-08-17T14:25:15.045Z,31.80
2022-08-17T14:27:52.598Z,31.47
2022-08-17T14:30:29.044Z,31.30
2022-08-17T14:32:58.875Z,31.47
2022-08-17T14:35:29.290Z,31.26
2022-08-17T14:37:58.869Z,31.21
2022-08-17T14:40:28.080Z,31.07
2022-08-17T14:42:57.893Z,31.27
2022-08-17T14:45:31.752Z,31.36
2022-08-17T14:48:05.656Z,31.26
2022-08-17T14:50:35.496Z,31.14
2022-08-17T14:53:07.994Z,31.37
2022-08-17T14:55:39.820Z,31.78
2022-08-17T14:58:09.071Z,32.14
2022-08-17T15:00:38.929Z,32.89
2022-08-17T15:03:07.431Z,32.90
2022-08-17T15:05:37.478Z,33.12
2022-08-17T15:08:08.701Z,33.38
2022-08-17T15:10:37.297Z,32.73
2022-08-17T15:13:05.854Z,34.09
2022-08-17T15:15:34.118Z,33.87
2022-08-17T15:18:03.228Z,34.26
2022-08-17T15:20:31.786Z,34.01
2022-08-17T15:22:59.956Z,34.05
2022-08-17T15:25:32.525Z,34.81
2022-08-17T15:28:01.773Z,34.75
2022-08-17T15:30:31.737Z,35.40
2022-08-17T15:33:01.098Z,34.19
2022-08-17T15:35:31.410Z,33.05
2022-08-17T15:38:07.895Z,32.74
2022-08-17T15:40:43.898Z,32.21
2022-08-17T15:43:14.758Z,31.89
2022-08-17T15:45:43.647Z,32.04
2022-08-17T15:48:14.236Z,31.48
2022-08-17T15:50:43.580Z,31.24
2022-08-17T15:53:14.302Z,31.38
2022-08-17T15:55:43.956Z,31.09
2022-08-17T15:58:12.135Z,31.04
2022-08-17T16:00:49.926Z,30.77
2022-08-17T16:04:01.108Z,30.78
2022-08-17T16:06:10.998Z,30.55
2022-08-17T16:08:41.552Z,30.57
2022-08-17T16:11:12.665Z,30.78
2022-08-17T16:13:41.643Z,30.64
2022-08-17T16:16:12.252Z,30.51
2022-08-17T16:18:40.420Z,30.91
2022-08-17T16:21:26.768Z,30.62
2022-08-17T16:23:57.976Z,31.51
2022-08-17T16:26:28.344Z,32.10
2022-08-17T16:28:57.087Z,33.62
2022-08-17T16:31:25.879Z,34.34
2022-08-17T16:34:17.580Z,34.80
2022-08-17T16:36:55.583Z,35.20
2022-08-17T16:39:26.241Z,35.16
2022-08-17T16:41:56.480Z,34.54
2022-08-17T16:44:25.752Z,33.15
2022-08-17T16:46:54.057Z,31.88
2022-08-17T16:49:35.773Z,32.08
2022-08-17T16:52:11.258Z,31.68
2022-08-17T16:54:41.806Z,31.27
2022-08-17T16:57:11.647Z,30.70
2022-08-17T16:59:43.798Z,30.81
2022-08-17T17:02:17.167Z,30.76
2022-08-17T17:04:51.721Z,30.64
2022-08-17T17:07:34.705Z,30.32
2022-08-17T17:10:08.606Z,30.39
2022-08-17T17:13:01.377Z,30.25
2022-08-17T17:15:39.611Z,30.27
2022-08-17T17:18:12.825Z,30.24
2022-08-17T17:20:48.517Z,30.02
2022-08-17T17:23:31.414Z,30.07
2022-08-17T17:26:10.998Z,29.91
2022-08-17T17:28:48.912Z,29.63
2022-08-17T17:31:20.409Z,29.48
2022-08-17T17:33:52.585Z,29.61
2022-08-17T17:36:30.438Z,29.36
2022-08-17T17:39:03.856Z,29.11
2022-08-17T17:41:36.650Z,29.01
2022-08-17T17:44:12.711Z,28.74
2022-08-17T17:46:47.834Z,28.48
2022-08-17T17:49:18.161Z,28.34
2022-08-17T17:52:07.581Z,28.62
2022-08-17T17:54:52.572Z,28.26
2022-08-17T17:57:29.991Z,27.94
2022-08-17T18:00:06.389Z,28.00
2022-08-17T18:02:52.713Z,27.76
2022-08-17T18:05:40.239Z,27.69
2022-08-17T18:08:18.145Z,27.43
2022-08-17T18:10:54.486Z,27.26
2022-08-17T18:13:35.425Z,27.19
2022-08-17T18:16:11.506Z,27.05
2022-08-17T18:18:44.257Z,26.94
2022-08-17T18:21:19.344Z,26.75
2022-08-17T18:23:52.605Z,26.58
2022-08-17T18:26:37.511Z,26.49
2022-08-17T18:29:16.221Z,26.36
2022-08-17T18:31:45.713Z,26.19
2022-08-17T18:34:46.102Z,26.19
2022-08-17T18:37:16.193Z,25.99
2022-08-17T18:39:47.737Z,26.01
2022-08-17T18:42:26.522Z,25.89
2022-08-17T18:44:55.751Z,25.78
2022-08-17T18:47:27.425Z,25.67
2022-08-17T18:49:58.180Z,25.54
2022-08-17T18:52:28.680Z,25.54
2022-08-17T18:55:09.004Z,25.47
2022-08-17T18:57:40.815Z,25.45
2022-08-17T19:00:17.281Z,25.41
2022-08-17T19:02:55.775Z,25.14
2022-08-17T19:05:39.997Z,24.77
2022-08-17T19:08:25.274Z,24.93
2022-08-17T19:10:56.477Z,24.91
2022-08-17T19:13:29.335Z,24.97
2022-08-17T19:16:12.299Z,24.75
2022-08-17T19:18:50.415Z,24.80
2022-08-17T19:21:24.483Z,24.76
2022-08-17T19:23:58.863Z,24.66
2022-08-17T19:26:54.285Z,24.52
2022-08-17T19:29:25.595Z,24.66
2022-08-17T19:31:55.190Z,24.33
2022-08-17T19:34:33.755Z,24.37
2022-08-17T19:37:08.959Z,24.15
2022-08-17T19:39:44.423Z,23.99
2022-08-17T19:42:20.518Z,24.00
2022-08-17T19:44:57.262Z,24.04
2022-08-17T19:47:53.862Z,24.05
2022-08-17T19:50:38.438Z,24.01
2022-08-17T19:53:17.588Z,23.75
2022-08-17T19:55:54.959Z,23.59
2022-08-17T19:58:36.350Z,23.90
2022-08-17T20:01:08.165Z,23.73
2022-08-17T20:03:51.929Z,23.79
2022-08-17T20:06:23.951Z,23.75
2022-08-17T20:08:59.458Z,23.49
2022-08-17T20:11:34.365Z,23.57
2022-08-17T20:14:08.824Z,23.61
2022-08-17T20:16:37.181Z,23.33
2022-08-17T20:19:13.193Z,23.49
2022-08-17T20:21:50.012Z,23.32
2022-08-17T20:24:23.458Z,23.56
2022-08-17T20:26:58.586Z,23.28
2022-08-17T20:29:39.639Z,23.26
2022-08-17T20:32:25.215Z,23.13
2022-08-17T20:35:10.994Z,22.97
2022-08-17T20:37:44.384Z,23.16
2022-08-17T20:40:25.816Z,23.26
2022-08-17T20:42:54.582Z,23.40
2022-08-17T20:46:02.433Z,23.21
2022-08-17T20:48:38.953Z,23.19
2022-08-17T20:51:18.460Z,23.26
2022-08-17T20:54:26.345Z,23.23
2022-08-17T20:56:57.958Z,22.99
2022-08-17T20:59:58.455Z,22.83
2022-08-17T21:02:29.213Z,22.69
2022-08-17T21:05:30.467Z,22.63
2022-08-17T21:08:02.169Z,22.52
2022-08-17T21:10:37.030Z,22.84
2022-08-17T21:13:29.013Z,22.78
2022-08-17T21:16:01.443Z,22.74
2022-08-17T21:18:38.621Z,22.82
2022-08-17T21:21:22.055Z,22.79
2022-08-17T21:24:09.079Z,22.89
2022-08-17T21:26:53.748Z,23.11
2022-08-17T21:29:31.397Z,23.13
2022-08-17T21:32:24.288Z,23.24
2022-08-17T21:35:30.486Z,23.01
2022-08-17T21:38:05.044Z,23.16
2022-08-17T21:40:35.003Z,23.19
2022-08-17T21:43:23.534Z,23.22
2022-08-17T21:46:00.106Z,23.01
2022-08-17T21:48:29.914Z,23.01
2022-08-17T21:51:03.693Z,22.97
2022-08-17T21:53:38.536Z,22.94
2022-08-17T21:56:07.883Z,22.95
2022-08-17T21:58:40.287Z,22.99
2022-08-17T22:01:19.705Z,22.95
2022-08-17T22:03:56.554Z,22.82
2022-08-17T22:06:27.613Z,22.71
2022-08-17T22:09:06.348Z,22.74
2022-08-17T22:11:52.502Z,22.76
2022-08-17T22:14:25.606Z,22.90
2022-08-17T22:17:15.354Z,22.80
2022-08-17T22:19:46.695Z,22.77
2022-08-17T22:22:30.392Z,22.76
2022-08-17T22:25:03.121Z,22.64
2022-08-17T22:27:50.530Z,22.46
2022-08-17T22:30:28.831Z,22.47
2022-08-17T22:32:58.606Z,22.46
2022-08-17T22:35:42.625Z,22.38
2022-08-17T22:38:32.639Z,22.32
2022-08-17T22:41:25.971Z,22.57
2022-08-17T22:43:57.429Z,22.39
2022-08-17T22:46:28.200Z,22.18
2022-08-17T22:48:59.731Z,22.08
2022-08-17T22:51:30.597Z,22.10
2022-08-17T22:54:21.042Z,21.88
2022-08-17T22:57:12.052Z,22.04
2022-08-17T22:59:48.091Z,22.06
2022-08-17T23:02:25.761Z,22.12
2022-08-17T23:04:59.106Z,22.35
2022-08-17T23:07:27.242Z,22.09
2022-08-17T23:09:55.638Z,22.09
2022-08-17T23:12:27.303Z,22.12
2022-08-17T23:15:01.474Z,21.95
2022-08-17T23:17:37.255Z,21.80
2022-08-17T23:20:08.324Z,21.71
2022-08-17T23:22:38.201Z,21.75
2022-08-17T23:25:27.913Z,21.71
2022-08-17T23:27:58.873Z,21.72
2022-08-17T23:30:28.533Z,21.59
2022-08-17T23:33:01.050Z,21.81
2022-08-17T23:35:39.983Z,21.69
2022-08-17T23:38:12.893Z,21.69
2022-08-17T23:40:42.043Z,21.60
2022-08-17T23:43:24.851Z,21.68
2022-08-17T23:45:54.983Z,21.62
2022-08-17T23:48:35.416Z,21.28
2022-08-17T23:51:09.125Z,21.49
2022-08-17T23:53:40.201Z,21.38
2022-08-17T23:56:11.238Z,21.25
2022-08-17T23:58:42.140Z,21.37
